Carnival Miracle — H3VS — position and weather

sailwx.info

Track history (hours):
 
Tides and Currents Weather Stations Pressure Air Temp Water Temp Dewpoint Dewpoint Depression Visibility Wind Speed Wind Dir Waves Ship Positions

Carnival Miracle

Operator: Carnival Cruise Lines

Last reported at 2017-Jul-22 18:28 UTC. Time now 2017-Jul-22 18:34 UTC.
Position N 33°45' W 118°11'.

Type: Ship. MMSI: 35437000.

Date/timePositionNaut miles runAvg speedWind from/ knotsBaromVisibWave heightAir tempDewpointWater temp
2017-Jul-22 18:28N 33°45' W 118°11'0 0.0
2017-Jul-22 18:00N 33°45' W 118°11'0 0.0
2017-Jul-22 17:30N 33°45' W 118°11'0 0.0
2017-Jul-22 17:00N 33°45' W 118°11'0 0.0
2017-Jul-22 16:30N 33°45' W 118°11'0 0.0
2017-Jul-22 16:00N 33°45' W 118°11'0 0.0
2017-Jul-22 15:29N 33°45' W 118°11'0 0.0
2017-Jul-22 14:56N 33°45' W 118°11'0 0.1
2017-Jul-22 14:01N 33°45' W 118°11'1 2.2
2017-Jul-22 13:30N 33°44' W 118°11'510.0
2017-Jul-22 13:00N 33°39' W 118°10'612.0
2017-Jul-22 12:30N 33°33' W 118°09'713.7
2017-Jul-22 12:00N 33°27' W 118°06'  
2017-Jul-16 23:18N 26°27' W 114°18'922.2
2017-Jul-16 22:54N 26°34' W 114°24'922.4
2017-Jul-16 22:28N 26°42' W 114°30'1122.6
2017-Jul-16 22:00N 26°50' W 114°38'17421.8
2017-Jul-16 14:00N 29°19' W 116°21'3822.3
2017-Jul-16 12:17N 29°55' W 116°36'722.1
2017-Jul-16 11:57N 30°01' W 116°39'1022.1
2017-Jul-16 11:30N 30°11' W 116°43'1121.9
2017-Jul-16 11:00N 30°21' W 116°47'1121.8
2017-Jul-16 10:31N 30°31' W 116°52'1121.7
2017-Jul-16 10:01N 30°41' W 116°56'1121.3
2017-Jul-16 09:30N 30°51' W 117°01'1021.2
2017-Jul-16 09:00N 31°01' W 117°05'1121.3
2017-Jul-16 08:31N 31°11' W 117°09'1121.6
2017-Jul-16 08:00N 31°21' W 117°13'1122.0
2017-Jul-16 07:31N 31°31' W 117°18'1121.7
2017-Jul-16 07:01N 31°42' W 117°23'1121.9
2017-Jul-16 06:30N 31°52' W 117°28'1122.0
2017-Jul-16 06:01N 32°02' W 117°32'1122.0
2017-Jul-16 05:31N 32°13' W 117°36'1121.2
2017-Jul-16 05:01N 32°22' W 117°40'1019.9
2017-Jul-16 04:31N 32°32' W 117°45'1020.0
2017-Jul-16 04:01N 32°41' W 117°49'1020.1
2017-Jul-16 03:31N 32°51' W 117°51'1020.4
2017-Jul-16 03:01N 33°01' W 117°55'1020.4
2017-Jul-16 02:30N 33°10' W 118°00'1020.1
2017-Jul-16 02:00N 33°19' W 118°06'1020.1
2017-Jul-16 01:30N 33°28' W 118°10'816.8
2017-Jul-16 01:00N 33°36' W 118°13'611.9
2017-Jul-16 00:30N 33°42' W 118°11'3 5.9
2017-Jul-15 23:59N 33°45' W 118°11'0 0.0
2017-Jul-15 23:29N 33°45' W 118°11'0 0.0
2017-Jul-15 22:59N 33°45' W 118°11'0 0.0
2017-Jul-15 22:29N 33°45' W 118°11'0 0.0
2017-Jul-15 21:59N 33°45' W 118°11'0 0.0
2017-Jul-15 21:28N 33°45' W 118°11'0 0.0
2017-Jul-15 20:55N 33°45' W 118°11'0 0.0
2017-Jul-15 20:25N 33°45' W 118°11'0 0.0
2017-Jul-15 19:58N 33°45' W 118°11'0 0.0
2017-Jul-15 19:30N 33°45' W 118°11'0 0.0
2017-Jul-15 18:57N 33°45' W 118°11'0 0.0
2017-Jul-15 18:30N 33°45' W 118°11'0 0.0
2017-Jul-15 17:57N 33°45' W 118°11'0 0.0
2017-Jul-15 17:29N 33°45' W 118°11'0 0.0
2017-Jul-15 16:56N 33°45' W 118°11'0 0.0
2017-Jul-15 16:29N 33°45' W 118°11'0 0.0
2017-Jul-15 15:59N 33°45' W 118°11'0 0.0
2017-Jul-15 15:29N 33°45' W 118°11'0 0.0
2017-Jul-15 14:58N 33°45' W 118°11'0 0.1
2017-Jul-15 14:00N 33°45' W 118°11'1 2.4
2017-Jul-15 13:30N 33°44' W 118°11'510.7
2017-Jul-15 13:00N 33°38' W 118°10'611.9
2017-Jul-15 12:30N 33°33' W 118°08'612.2
2017-Jul-15 12:00N 33°27' W 118°06'815.4
2017-Jul-15 11:30N 33°20' W 118°02'816.1
2017-Jul-15 11:00N 33°13' W 117°58'816.5
2017-Jul-15 10:30N 33°05' W 117°55'917.0
2017-Jul-15 10:00N 32°57' W 117°52'917.2
2017-Jul-15 09:31N 32°49' W 117°49'816.4
2017-Jul-15 09:00N 32°41' W 117°44'917.4
2017-Jul-15 08:30N 32°33' W 117°41'917.6
2017-Jul-15 08:00N 32°25' W 117°37'917.6
2017-Jul-15 07:31N 32°17' W 117°33'917.2
2017-Jul-15 07:00N 32°09' W 117°29'816.9
2017-Jul-15 06:31N 32°01' W 117°26'917.0
2017-Jul-15 06:00N 31°53' W 117°22'1019.6
2017-Jul-15 05:30N 31°44' W 117°18'1019.3
2017-Jul-15 05:00N 31°35' W 117°14'919.1
2017-Jul-15 04:31N 31°26' W 117°10'1019.3
2017-Jul-15 04:00N 31°17' W 117°06'1019.5
2017-Jul-15 03:30N 31°08' W 117°01'1019.4
2017-Jul-15 03:00N 30°59' W 116°57'1019.6
2017-Jul-15 02:30N 30°50' W 116°53'919.5
2017-Jul-15 02:01N 30°41' W 116°49'1719.4
2017-Jul-15 01:09N 30°25' W 116°42'1019.4
2017-Jul-15 00:37N 30°16' W 116°38'419.1
2017-Jul-15 00:24N 30°12' W 116°36'819.1
2017-Jul-15 00:00N 30°05' W 116°33'919.1
2017-Jul-14 23:31N 29°56' W 116°29'1019.1
2017-Jul-14 23:00N 29°47' W 116°25'2518.9
2017-Jul-14 21:42N 29°24' W 116°14'719.4
2017-Jul-14 21:19N 29°17' W 116°11'819.6
2017-Jul-14 20:55N 29°10' W 116°08'819.5
2017-Jul-14 20:30N 29°02' W 116°05'1019.6
2017-Jul-14 20:00N 28°53' W 116°01'  
Track history (hours):
 
Tides and Currents Weather Stations Pressure Air Temp Water Temp Dewpoint Dewpoint Depression Visibility Wind Speed Wind Dir Waves Ship Positions

Carnival Miracle

Operator: Carnival Cruise Lines

Last reported at 2017-Jul-22 18:28 UTC. Time now 2017-Jul-22 18:34 UTC.
Position N 33°45' W 118°11'.

Type: Ship. MMSI: 35437000.

Date/timePositionNaut miles runAvg speedWind from/ knotsBaromVisibWave heightAir tempDewpointWater temp
2017-Jul-22 18:28N 33°45' W 118°11'0 0.0
2017-Jul-22 18:00N 33°45' W 118°11'0 0.0
2017-Jul-22 17:30N 33°45' W 118°11'0 0.0
2017-Jul-22 17:00N 33°45' W 118°11'0 0.0
2017-Jul-22 16:30N 33°45' W 118°11'0 0.0
2017-Jul-22 16:00N 33°45' W 118°11'0 0.0
2017-Jul-22 15:29N 33°45' W 118°11'0 0.0
2017-Jul-22 14:56N 33°45' W 118°11'0 0.1
2017-Jul-22 14:01N 33°45' W 118°11'1 2.2
2017-Jul-22 13:30N 33°44' W 118°11'510.0
2017-Jul-22 13:00N 33°39' W 118°10'612.0
2017-Jul-22 12:30N 33°33' W 118°09'713.7
2017-Jul-22 12:00N 33°27' W 118°06'  
2017-Jul-16 23:18N 26°27' W 114°18'922.2
2017-Jul-16 22:54N 26°34' W 114°24'922.4
2017-Jul-16 22:28N 26°42' W 114°30'1122.6
2017-Jul-16 22:00N 26°50' W 114°38'17421.8
2017-Jul-16 14:00N 29°19' W 116°21'3822.3
2017-Jul-16 12:17N 29°55' W 116°36'722.1
2017-Jul-16 11:57N 30°01' W 116°39'1022.1
2017-Jul-16 11:30N 30°11' W 116°43'1121.9
2017-Jul-16 11:00N 30°21' W 116°47'1121.8
2017-Jul-16 10:31N 30°31' W 116°52'1121.7
2017-Jul-16 10:01N 30°41' W 116°56'1121.3
2017-Jul-16 09:30N 30°51' W 117°01'1021.2
2017-Jul-16 09:00N 31°01' W 117°05'1121.3
2017-Jul-16 08:31N 31°11' W 117°09'1121.6
2017-Jul-16 08:00N 31°21' W 117°13'1122.0
2017-Jul-16 07:31N 31°31' W 117°18'1121.7
2017-Jul-16 07:01N 31°42' W 117°23'1121.9
2017-Jul-16 06:30N 31°52' W 117°28'1122.0
2017-Jul-16 06:01N 32°02' W 117°32'1122.0
2017-Jul-16 05:31N 32°13' W 117°36'1121.2
2017-Jul-16 05:01N 32°22' W 117°40'1019.9
2017-Jul-16 04:31N 32°32' W 117°45'1020.0
2017-Jul-16 04:01N 32°41' W 117°49'1020.1
2017-Jul-16 03:31N 32°51' W 117°51'1020.4
2017-Jul-16 03:01N 33°01' W 117°55'1020.4
2017-Jul-16 02:30N 33°10' W 118°00'1020.1
2017-Jul-16 02:00N 33°19' W 118°06'1020.1
2017-Jul-16 01:30N 33°28' W 118°10'816.8
2017-Jul-16 01:00N 33°36' W 118°13'611.9
2017-Jul-16 00:30N 33°42' W 118°11'3 5.9
2017-Jul-15 23:59N 33°45' W 118°11'0 0.0
2017-Jul-15 23:29N 33°45' W 118°11'0 0.0
2017-Jul-15 22:59N 33°45' W 118°11'0 0.0
2017-Jul-15 22:29N 33°45' W 118°11'0 0.0
2017-Jul-15 21:59N 33°45' W 118°11'0 0.0
2017-Jul-15 21:28N 33°45' W 118°11'0 0.0
2017-Jul-15 20:55N 33°45' W 118°11'0 0.0
2017-Jul-15 20:25N 33°45' W 118°11'0 0.0
2017-Jul-15 19:58N 33°45' W 118°11'0 0.0
2017-Jul-15 19:30N 33°45' W 118°11'0 0.0
2017-Jul-15 18:57N 33°45' W 118°11'0 0.0
2017-Jul-15 18:30N 33°45' W 118°11'0 0.0
2017-Jul-15 17:57N 33°45' W 118°11'0 0.0
2017-Jul-15 17:29N 33°45' W 118°11'0 0.0
2017-Jul-15 16:56N 33°45' W 118°11'0 0.0
2017-Jul-15 16:29N 33°45' W 118°11'0 0.0
2017-Jul-15 15:59N 33°45' W 118°11'0 0.0
2017-Jul-15 15:29N 33°45' W 118°11'0 0.0
2017-Jul-15 14:58N 33°45' W 118°11'0 0.1
2017-Jul-15 14:00N 33°45' W 118°11'1 2.4
2017-Jul-15 13:30N 33°44' W 118°11'510.7
2017-Jul-15 13:00N 33°38' W 118°10'611.9
2017-Jul-15 12:30N 33°33' W 118°08'612.2
2017-Jul-15 12:00N 33°27' W 118°06'815.4
2017-Jul-15 11:30N 33°20' W 118°02'816.1
2017-Jul-15 11:00N 33°13' W 117°58'816.5
2017-Jul-15 10:30N 33°05' W 117°55'917.0
2017-Jul-15 10:00N 32°57' W 117°52'917.2
2017-Jul-15 09:31N 32°49' W 117°49'816.4
2017-Jul-15 09:00N 32°41' W 117°44'917.4
2017-Jul-15 08:30N 32°33' W 117°41'917.6
2017-Jul-15 08:00N 32°25' W 117°37'917.6
2017-Jul-15 07:31N 32°17' W 117°33'917.2
2017-Jul-15 07:00N 32°09' W 117°29'816.9
2017-Jul-15 06:31N 32°01' W 117°26'917.0
2017-Jul-15 06:00N 31°53' W 117°22'1019.6
2017-Jul-15 05:30N 31°44' W 117°18'1019.3
2017-Jul-15 05:00N 31°35' W 117°14'919.1
2017-Jul-15 04:31N 31°26' W 117°10'1019.3
2017-Jul-15 04:00N 31°17' W 117°06'1019.5
2017-Jul-15 03:30N 31°08' W 117°01'1019.4
2017-Jul-15 03:00N 30°59' W 116°57'1019.6
2017-Jul-15 02:30N 30°50' W 116°53'919.5
2017-Jul-15 02:01N 30°41' W 116°49'1719.4
2017-Jul-15 01:09N 30°25' W 116°42'1019.4
2017-Jul-15 00:37N 30°16' W 116°38'419.1
2017-Jul-15 00:24N 30°12' W 116°36'819.1
2017-Jul-15 00:00N 30°05' W 116°33'919.1
2017-Jul-14 23:31N 29°56' W 116°29'1019.1
2017-Jul-14 23:00N 29°47' W 116°25'2518.9
2017-Jul-14 21:42N 29°24' W 116°14'719.4
2017-Jul-14 21:19N 29°17' W 116°11'819.6
2017-Jul-14 20:55N 29°10' W 116°08'819.5
2017-Jul-14 20:30N 29°02' W 116°05'1019.6
2017-Jul-14 20:00N 28°53' W 116°01'  

Dump ship's entire track history